Time;durP1;ratioP1;P1;durP2;ratioP2;P2;SDS_P1;SDS_P2;PMS_P1;PMS_P2;Temp;Humidity;BMP_temperature;BMP_pressure;BME280_temperature;BME280_humidity;BME280_pressure;Samples;Min_cycle;Max_cycle;Signal;HPM_P1;HPM_P2
2022/12/19 00:01:17;;;;;;;;;;;;;;;;;;5052907;28;4726;-61
2022/12/19 00:03:46;;;;;;;;;;;;;;;;;;5059853;28;4912;-61
2022/12/19 00:06:12;;;;;;;;;;;;;;;;;;5062016;28;5185;-60
2022/12/19 00:08:39;;;;;;;;;;;;;;;;;;5063462;28;3485;-60
2022/12/19 00:11:04;;;;;;;;;;;;;;;;;;5060266;28;4982;-60
2022/12/19 00:13:30;;;;;;;;;;;;;;;;;;5062872;28;4604;-61
2022/12/19 00:15:58;;;;;;;;;;;;;;;;;;5058649;28;5246;-61
2022/12/19 00:18:24;;;;;;;;;;;;;;;;;;5052457;28;4768;-61
2022/12/19 00:20:59;;;;;;;;;;;;;;;;;;5054944;28;3442;-60
2022/12/19 00:23:25;;;;;;;;;;;;;;;;;;5051433;28;4731;-61
2022/12/19 00:25:50;;;;;;;;;;;;;;;;;;5058984;28;4595;-60
2022/12/19 00:28:15;;;;;;;;;;;;;;;;;;5060819;28;5142;-60
2022/12/19 00:30:40;;;;;;;;;;;;;;;;;;5057979;28;5149;-60
2022/12/19 00:33:06;;;;;;;;;;;;;;;;;;5063551;28;3442;-61
2022/12/19 00:35:31;;;;;;;;;;;;;;;;;;5060265;28;4651;-61
2022/12/19 00:37:56;;;;;;;;;;;;;;;;;;5063932;28;4463;-61
2022/12/19 00:40:22;;;;;;;;;;;;;;;;;;5059555;28;4624;-60
2022/12/19 00:42:47;;;;;;;;;;;;;;;;;;5063198;28;4896;-60
2022/12/19 00:45:12;;;;;;;;;;;;;;;;;;5064085;28;5036;-61
2022/12/19 00:47:37;;;;;;;;;;;;;;;;;;5062435;28;3201;-61
2022/12/19 00:50:03;;;;;;;;;;;;;;;;;;5059389;28;5123;-60
2022/12/19 00:52:28;;;;;;;;;;;;;;;;;;5065121;28;5135;-61
2022/12/19 00:54:53;;;;;;;;;;;;;;;;;;5064553;28;5226;-61
2022/12/19 00:57:19;;;;;;;;;;;;;;;;;;5059120;28;4700;-60
2022/12/19 00:59:44;;;;;;;;;;;;;;;;;;5068937;28;1213;-61
2022/12/19 01:02:09;;;;;;;;;;;;;;;;;;5065006;28;5076;-61
2022/12/19 01:04:34;;;;;;;;;;;;;;;;;;5064445;28;5088;-61
2022/12/19 01:07:00;;;;;;;;;;;;;;;;;;5062872;28;4485;-61
2022/12/19 01:09:25;;;;;;;;;;;;;;;;;;5062500;28;5039;-60
2022/12/19 01:14:34;;;;;;;;;;;;;;;;;;5060279;28;4464;-60
2022/12/19 01:16:59;;;;;;;;;;;;;;;;;;5064400;28;4935;-60
2022/12/19 01:19:25;;;;;;;;;;;;;;;;;;5065131;28;5079;-61
2022/12/19 01:21:50;;;;;;;;;;;;;;;;;;5042995;28;5029;-61
2022/12/19 01:24:15;;;;;;;;;;;;;;;;;;5064048;28;5436;-61
2022/12/19 01:26:41;;;;;;;;;;;;;;;;;;5061553;28;3549;-61
2022/12/19 01:29:06;;;;;;;;;;;;;;;;;;5067484;28;4458;-61
2022/12/19 01:31:31;;;;;;;;;;;;;;;;;;5063085;28;5233;-61
2022/12/19 01:33:58;;;;;;;;;;;;;;;;;;5064727;28;5095;-60
2022/12/19 01:36:23;;;;;;;;;;;;;;;;;;5062020;28;5303;-60
2022/12/19 01:38:48;;;;;;;;;;;;;;;;;;5061618;28;3521;-60
2022/12/19 01:41:13;;;;;;;;;;;;;;;;;;5064015;28;4714;-60
2022/12/19 01:43:58;;;;;;;;;;;;;;;;;;5061932;28;5006;-60
2022/12/19 01:46:29;;;;;;;;;;;;;;;;;;5061472;28;5072;-60
2022/12/19 01:48:54;;;;;;;;;;;;;;;;;;5060641;28;4917;-60
2022/12/19 01:51:20;;;;;;;;;;;;;;;;;;5060296;28;5168;-60
2022/12/19 01:53:47;;;;;;;;;;;;;;;;;;5066249;28;1100;-60
2022/12/19 01:56:12;;;;;;;;;;;;;;;;;;5052182;28;5259;-61
2022/12/19 01:58:38;;;;;;;;;;;;;;;;;;5055538;28;5129;-61
2022/12/19 02:01:04;;;;;;;;;;;;;;;;;;5063596;28;5084;-60
2022/12/19 02:03:30;;;;;;;;;;;;;;;;;;5055144;28;5148;-60
2022/12/19 02:05:56;;;;;;;;;;;;;;;;;;5056619;28;3260;-60
2022/12/19 02:08:21;;;;;;;;;;;;;;;;;;5051441;28;4955;-61
2022/12/19 02:10:46;;;;;;;;;;;;;;;;;;5058627;28;5052;-60
2022/12/19 02:13:11;;;;;;;;;;;;;;;;;;5058312;28;5111;-60
2022/12/19 02:16:03;;;;;;;;;;;;;;;;;;5067247;28;5128;-60
2022/12/19 02:18:34;;;;;;;;;;;;;;;;;;5061401;28;4491;-61
2022/12/19 02:21:06;;;;;;;;;;;;;;;;;;5061161;28;1694;-60
2022/12/19 02:23:41;;;;;;;;;;;;;;;;;;5054291;28;4960;-61
2022/12/19 02:26:41;;;;;;;;;;;;;;;;;;5078641;28;4904;-60
2022/12/19 02:29:25;;;;;;;;;;;;;;;;;;4964640;28;5232;-61
2022/12/19 02:31:50;;;;;;;;;;;;;;;;;;5063697;28;4479;-60
2022/12/19 02:34:34;;;;;;;;;;;;;;;;;;5076412;28;4967;-60
2022/12/19 02:37:04;;;;;;;;;;;;;;;;;;5079751;28;5261;-61
2022/12/19 02:39:30;;;;;;;;;;;;;;;;;;5056779;28;4546;-60
2022/12/19 02:41:55;;;;;;;;;;;;;;;;;;5080643;28;1221;-60
2022/12/19 02:44:22;;;;;;;;;;;;;;;;;;5074816;28;4463;-59
2022/12/19 02:46:48;;;;;;;;;;;;;;;;;;5064384;28;5019;-61
2022/12/19 02:49:13;;;;;;;;;;;;;;;;;;5052012;28;5054;-62
2022/12/19 02:51:38;;;;;;;;;;;;;;;;;;5058810;28;4612;-62
2022/12/19 02:54:04;;;;;;;;;;;;;;;;;;5074838;28;3560;-62
2022/12/19 02:56:47;;;;;;;;;;;;;;;;;;5067531;28;5029;-61
2022/12/19 02:59:32;;;;;;;;;;;;;;;;;;5065704;28;4543;-61
2022/12/19 03:02:00;;;;;;;;;;;;;;;;;;5064243;28;4814;-60
2022/12/19 03:04:25;;;;;;;;;;;;;;;;;;5066139;28;5257;-61
2022/12/19 03:06:52;;;;;;;;;;;;;;;;;;5069225;28;5034;-61
2022/12/19 03:09:17;;;;;;;;;;;;;;;;;;5053166;28;5170;-61
2022/12/19 03:11:43;;;;;;;;;;;;;;;;;;5069756;28;3346;-61
2022/12/19 03:14:12;;;;;;;;;;;;;;;;;;5068875;28;5043;-62
2022/12/19 03:16:37;;;;;;;;;;;;;;;;;;5070695;28;4444;-61
2022/12/19 03:19:03;;;;;;;;;;;;;;;;;;5070120;28;4519;-61
2022/12/19 03:21:34;;;;;;;;;;;;;;;;;;5054189;28;5098;-62
2022/12/19 03:23:59;;;;;;;;;;;;;;;;;;5066989;28;3399;-61
2022/12/19 03:26:26;;;;;;;;;;;;;;;;;;5068166;28;4832;-61
2022/12/19 03:28:58;;;;;;;;;;;;;;;;;;5064831;28;5050;-61
2022/12/19 03:31:23;;;;;;;;;;;;;;;;;;5064185;28;4957;-61
2022/12/19 03:33:49;;;;;;;;;;;;;;;;;;5065943;28;5098;-61
2022/12/19 03:36:16;;;;;;;;;;;;;;;;;;5060289;28;5128;-61
2022/12/19 03:38:42;;;;;;;;;;;;;;;;;;5060648;28;3392;-61
2022/12/19 03:41:08;;;;;;;;;;;;;;;;;;5064320;28;4862;-61
2022/12/19 03:43:33;;;;;;;;;;;;;;;;;;5067464;28;4995;-61
2022/12/19 03:46:05;;;;;;;;;;;;;;;;;;5059201;28;5172;-60
2022/12/19 03:49:06;;;;;;;;;;;;;;;;;;5064686;28;4963;-61
2022/12/19 03:51:31;;;;;;;;;;;;;;;;;;5013795;28;5126;-61
2022/12/19 03:53:56;;;;;;;;;;;;;;;;;;5052610;28;3111;-61
2022/12/19 03:56:33;;;;;;;;;;;;;;;;;;5067938;28;4504;-61
2022/12/19 03:59:17;;;;;;;;;;;;;;;;;;5066072;28;4621;-62
2022/12/19 04:01:42;;;;;;;;;;;;;;;;;;5066012;28;4999;-61
2022/12/19 04:04:07;;;;;;;;;;;;;;;;;;5066044;28;4911;-61
2022/12/19 04:06:32;;;;;;;;;;;;;;;;;;5063029;28;4721;-61
2022/12/19 04:08:58;;;;;;;;;;;;;;;;;;5066477;28;1862;-62
2022/12/19 04:11:24;;;;;;;;;;;;;;;;;;5061911;28;5074;-61
2022/12/19 04:13:54;;;;;;;;;;;;;;;;;;5060495;28;5055;-61
2022/12/19 04:16:26;;;;;;;;;;;;;;;;;;5065023;28;5366;-61
2022/12/19 04:18:55;;;;;;;;;;;;;;;;;;5056101;28;4892;-62
2022/12/19 04:21:30;;;;;;;;;;;;;;;;;;5065017;28;4490;-61
2022/12/19 04:24:05;;;;;;;;;;;;;;;;;;5060336;28;3248;-61
2022/12/19 04:26:30;;;;;;;;;;;;;;;;;;5060881;28;4953;-61
2022/12/19 04:28:57;;;;;;;;;;;;;;;;;;5063130;28;4868;-61
2022/12/19 04:31:22;;;;;;;;;;;;;;;;;;5063392;28;4679;-61
2022/12/19 04:33:47;;;;;;;;;;;;;;;;;;5061349;28;5059;-60
2022/12/19 04:36:13;;;;;;;;;;;;;;;;;;5059730;28;5133;-62
2022/12/19 04:38:38;;;;;;;;;;;;;;;;;;5062043;28;3461;-62
2022/12/19 04:41:03;;;;;;;;;;;;;;;;;;5061260;28;5058;-61
2022/12/19 04:43:28;;;;;;;;;;;;;;;;;;5065218;28;5016;-61
2022/12/19 04:45:54;;;;;;;;;;;;;;;;;;5062702;28;5166;-61
2022/12/19 04:48:19;;;;;;;;;;;;;;;;;;5065178;28;5217;-61
2022/12/19 04:50:44;;;;;;;;;;;;;;;;;;5065565;28;3298;-61
2022/12/19 04:53:10;;;;;;;;;;;;;;;;;;5063160;28;4862;-61
2022/12/19 04:55:35;;;;;;;;;;;;;;;;;;5060877;28;4477;-61
2022/12/19 04:58:00;;;;;;;;;;;;;;;;;;5066143;28;5119;-61
2022/12/19 05:00:25;;;;;;;;;;;;;;;;;;5063988;28;4913;-61
2022/12/19 05:02:51;;;;;;;;;;;;;;;;;;5063177;28;4456;-61
2022/12/19 05:05:17;;;;;;;;;;;;;;;;;;5063574;28;4947;-61
2022/12/19 05:07:42;;;;;;;;;;;;;;;;;;5065342;28;4601;-61
2022/12/19 05:10:08;;;;;;;;;;;;;;;;;;5060836;28;5058;-61
2022/12/19 05:12:33;;;;;;;;;;;;;;;;;;5063137;28;5107;-61
2022/12/19 05:14:58;;;;;;;;;;;;;;;;;;5064325;28;3404;-61
2022/12/19 05:17:24;;;;;;;;;;;;;;;;;;5058518;28;4478;-61
2022/12/19 05:19:49;;;;;;;;;;;;;;;;;;5063324;28;4969;-61
2022/12/19 05:22:14;;;;;;;;;;;;;;;;;;5066085;28;4658;-60
2022/12/19 05:24:40;;;;;;;;;;;;;;;;;;5057620;28;5090;-59
2022/12/19 05:27:05;;;;;;;;;;;;;;;;;;5064355;28;3086;-60
2022/12/19 05:29:30;;;;;;;;;;;;;;;;;;5065545;28;4878;-59
2022/12/19 05:31:56;;;;;;;;;;;;;;;;;;5064174;28;4866;-59
2022/12/19 05:34:22;;;;;;;;;;;;;;;;;;5063649;28;4443;-59
2022/12/19 05:36:47;;;;;;;;;;;;;;;;;;5060710;28;5142;-61
2022/12/19 05:39:12;;;;;;;;;;;;;;;;;;5063198;28;5900;-61
2022/12/19 05:41:38;;;;;;;;;;;;;;;;;;5063796;28;3326;-61
2022/12/19 05:44:03;;;;;;;;;;;;;;;;;;5058783;28;4505;-62
2022/12/19 05:46:28;;;;;;;;;;;;;;;;;;5063826;28;4974;-61
2022/12/19 05:48:53;;;;;;;;;;;;;;;;;;5061729;28;4970;-61
2022/12/19 05:51:19;;;;;;;;;;;;;;;;;;5062691;28;4463;-61
2022/12/19 05:53:45;;;;;;;;;;;;;;;;;;5061490;28;3493;-59
2022/12/19 05:56:12;;;;;;;;;;;;;;;;;;5061485;28;5277;-60
2022/12/19 05:58:38;;;;;;;;;;;;;;;;;;5057147;28;4814;-60
2022/12/19 06:01:03;;;;;;;;;;;;;;;;;;5065187;28;5092;-60
2022/12/19 06:03:28;;;;;;;;;;;;;;;;;;5060111;28;5307;-61
2022/12/19 06:05:53;;;;;;;;;;;;;;;;;;5064952;28;1440;-60
2022/12/19 06:08:19;;;;;;;;;;;;;;;;;;5060816;28;4862;-59
2022/12/19 06:10:44;;;;;;;;;;;;;;;;;;5063887;28;4997;-61
2022/12/19 06:13:09;;;;;;;;;;;;;;;;;;5064212;28;5155;-62
2022/12/19 06:15:34;;;;;;;;;;;;;;;;;;5058301;28;4650;-61
2022/12/19 06:18:00;;;;;;;;;;;;;;;;;;5065336;28;3380;-61
2022/12/19 06:20:25;;;;;;;;;;;;;;;;;;5061924;28;5041;-61
2022/12/19 06:22:50;;;;;;;;;;;;;;;;;;5047947;28;4550;-61
2022/12/19 06:25:16;;;;;;;;;;;;;;;;;;5061653;28;5019;-61
2022/12/19 06:27:41;;;;;;;;;;;;;;;;;;5060488;28;4505;-61
2022/12/19 06:30:07;;;;;;;;;;;;;;;;;;5062470;28;3093;-61
2022/12/19 06:32:32;;;;;;;;;;;;;;;;;;5065346;28;4877;-61
2022/12/19 06:34:57;;;;;;;;;;;;;;;;;;5062168;28;5173;-61
2022/12/19 06:37:22;;;;;;;;;;;;;;;;;;5049790;28;5040;-61
2022/12/19 06:39:49;;;;;;;;;;;;;;;;;;5045981;28;4920;-61
2022/12/19 06:42:23;;;;;;;;;;;;;;;;;;5059930;28;4699;-61
2022/12/19 06:44:49;;;;;;;;;;;;;;;;;;5058256;28;3470;-61
2022/12/19 06:47:14;;;;;;;;;;;;;;;;;;5052093;28;5054;-62
2022/12/19 06:49:39;;;;;;;;;;;;;;;;;;5059583;28;5389;-61
2022/12/19 06:52:04;;;;;;;;;;;;;;;;;;5058220;28;4893;-61
2022/12/19 06:54:30;;;;;;;;;;;;;;;;;;5060959;28;5056;-61
2022/12/19 06:56:55;;;;;;;;;;;;;;;;;;5048387;28;3359;-62
2022/12/19 06:59:20;;;;;;;;;;;;;;;;;;5035619;28;4999;-62
2022/12/19 07:01:46;;;;;;;;;;;;;;;;;;5053093;28;4924;-61
2022/12/19 07:04:11;;;;;;;;;;;;;;;;;;5062367;28;4539;-62
2022/12/19 07:06:36;;;;;;;;;;;;;;;;;;5058872;28;4976;-62
2022/12/19 07:09:02;;;;;;;;;;;;;;;;;;5072315;28;3499;-62
2022/12/19 07:11:27;;;;;;;;;;;;;;;;;;5071492;28;5150;-61
2022/12/19 07:13:52;;;;;;;;;;;;;;;;;;5077169;28;5203;-61
2022/12/19 07:16:17;;;;;;;;;;;;;;;;;;5076078;28;4709;-61
2022/12/19 07:18:43;;;;;;;;;;;;;;;;;;5077342;28;4502;-61
2022/12/19 07:21:10;;;;;;;;;;;;;;;;;;5057140;28;3263;-61
2022/12/19 07:23:35;;;;;;;;;;;;;;;;;;5067553;28;4613;-62
2022/12/19 07:26:00;;;;;;;;;;;;;;;;;;5069847;28;5155;-65
2022/12/19 07:28:25;;;;;;;;;;;;;;;;;;5059255;28;4983;-62
2022/12/19 07:30:51;;;;;;;;;;;;;;;;;;5039289;28;4738;-61
2022/12/19 07:33:16;;;;;;;;;;;;;;;;;;5063602;28;4607;-62
2022/12/19 07:35:41;;;;;;;;;;;;;;;;;;5066842;28;3652;-63
2022/12/19 07:38:07;;;;;;;;;;;;;;;;;;5074973;28;4947;-63
2022/12/19 07:40:32;;;;;;;;;;;;;;;;;;5078421;28;4823;-62
2022/12/19 07:42:59;;;;;;;;;;;;;;;;;;5077536;28;4938;-62
2022/12/19 07:45:24;;;;;;;;;;;;;;;;;;5067500;28;5059;-62
2022/12/19 07:47:49;;;;;;;;;;;;;;;;;;5077039;28;3230;-62
2022/12/19 07:50:14;;;;;;;;;;;;;;;;;;5073212;28;5047;-62
2022/12/19 07:52:40;;;;;;;;;;;;;;;;;;5073796;28;4708;-62
2022/12/19 07:55:05;;;;;;;;;;;;;;;;;;5075303;28;4716;-62
2022/12/19 07:57:30;;;;;;;;;;;;;;;;;;5068524;28;5089;-65
2022/12/19 07:59:56;;;;;;;;;;;;;;;;;;5071210;28;3637;-62
2022/12/19 08:02:21;;;;;;;;;;;;;;;;;;5036639;28;4861;-62
2022/12/19 08:04:46;;;;;;;;;;;;;;;;;;5076923;28;4585;-61
2022/12/19 08:07:11;;;;;;;;;;;;;;;;;;5072206;28;5047;-61
2022/12/19 08:09:37;;;;;;;;;;;;;;;;;;5079421;28;4964;-62
2022/12/19 08:12:03;;;;;;;;;;;;;;;;;;5070456;28;1198;-63
2022/12/19 08:14:28;;;;;;;;;;;;;;;;;;5070273;28;4658;-62
2022/12/19 08:16:53;;;;;;;;;;;;;;;;;;5069194;28;4482;-61
2022/12/19 08:19:19;;;;;;;;;;;;;;;;;;5070738;28;5157;-62
2022/12/19 08:21:44;;;;;;;;;;;;;;;;;;5072225;28;5327;-62
2022/12/19 08:24:09;;;;;;;;;;;;;;;;;;5067845;28;3505;-62
2022/12/19 08:26:35;;;;;;;;;;;;;;;;;;5064265;28;5030;-63
2022/12/19 08:29:00;;;;;;;;;;;;;;;;;;5072453;28;4807;-62
2022/12/19 08:31:25;;;;;;;;;;;;;;;;;;5075300;28;4640;-61
2022/12/19 08:33:51;;;;;;;;;;;;;;;;;;5054745;28;5181;-60
2022/12/19 08:36:19;;;;;;;;;;;;;;;;;;5065071;28;5380;-60
2022/12/19 08:38:45;;;;;;;;;;;;;;;;;;5076910;28;3127;-61
2022/12/19 08:41:11;;;;;;;;;;;;;;;;;;5055359;28;4503;-61
2022/12/19 08:43:37;;;;;;;;;;;;;;;;;;5064058;28;4486;-61
2022/12/19 08:46:02;;;;;;;;;;;;;;;;;;5069684;28;5054;-62
2022/12/19 08:48:27;;;;;;;;;;;;;;;;;;5067108;28;5141;-62
2022/12/19 08:50:53;;;;;;;;;;;;;;;;;;5072930;28;3447;-62
2022/12/19 08:53:19;;;;;;;;;;;;;;;;;;5071176;28;4628;-61
2022/12/19 08:55:44;;;;;;;;;;;;;;;;;;5055501;28;4927;-62
2022/12/19 08:58:09;;;;;;;;;;;;;;;;;;5059957;28;4814;-62
2022/12/19 09:00:35;;;;;;;;;;;;;;;;;;5061950;28;4983;-62
2022/12/19 09:03:00;;;;;;;;;;;;;;;;;;5064482;28;4544;-62
2022/12/19 09:05:26;;;;;;;;;;;;;;;;;;5062696;28;4626;-62
2022/12/19 09:07:51;;;;;;;;;;;;;;;;;;5062261;28;5044;-61
2022/12/19 09:10:16;;;;;;;;;;;;;;;;;;5064791;28;4554;-64
2022/12/19 09:12:41;;;;;;;;;;;;;;;;;;5057556;28;5089;-63
2022/12/19 09:15:07;;;;;;;;;;;;;;;;;;5060019;28;3319;-63
2022/12/19 09:17:32;;;;;;;;;;;;;;;;;;5050626;28;4405;-61
2022/12/19 09:19:57;;;;;;;;;;;;;;;;;;5062542;28;5141;-62
2022/12/19 09:22:23;;;;;;;;;;;;;;;;;;5058240;28;5034;-62
2022/12/19 09:24:48;;;;;;;;;;;;;;;;;;5061656;28;5023;-60
2022/12/19 09:27:13;;;;;;;;;;;;;;;;;;5057814;28;5175;-62
2022/12/19 09:29:38;;;;;;;;;;;;;;;;;;5052239;28;3524;-63
2022/12/19 09:32:04;;;;;;;;;;;;;;;;;;5054281;28;4545;-63
2022/12/19 09:34:29;;;;;;;;;;;;;;;;;;5055591;28;4781;-62
2022/12/19 09:36:54;;;;;;;;;;;;;;;;;;5056168;28;4558;-62
2022/12/19 09:39:20;;;;;;;;;;;;;;;;;;5058137;28;4997;-62
2022/12/19 09:41:50;;;;;;;;;;;;;;;;;;5061719;28;3535;-62
2022/12/19 09:44:34;;;;;;;;;;;;;;;;;;5062340;28;4560;-63
2022/12/19 09:46:59;;;;;;;;;;;;;;;;;;5058688;28;5154;-64
2022/12/19 09:49:26;;;;;;;;;;;;;;;;;;5063757;28;5092;-61
2022/12/19 09:51:51;;;;;;;;;;;;;;;;;;5063182;28;5131;-62
2022/12/19 09:54:22;;;;;;;;;;;;;;;;;;5067086;28;5028;-62
2022/12/19 09:56:47;;;;;;;;;;;;;;;;;;5059495;28;3218;-62
2022/12/19 09:59:15;;;;;;;;;;;;;;;;;;5061257;28;4522;-61
2022/12/19 10:01:48;;;;;;;;;;;;;;;;;;5054816;28;5055;-62
2022/12/19 10:04:17;;;;;;;;;;;;;;;;;;5058764;28;4497;-61
2022/12/19 10:06:42;;;;;;;;;;;;;;;;;;5059291;28;5223;-62
2022/12/19 10:09:10;;;;;;;;;;;;;;;;;;5055301;28;3625;-62
2022/12/19 10:11:39;;;;;;;;;;;;;;;;;;5060618;28;5170;-61
2022/12/19 10:14:19;;;;;;;;;;;;;;;;;;5062941;28;4984;-61
2022/12/19 10:17:00;;;;;;;;;;;;;;;;;;5059319;28;4447;-61
2022/12/19 10:19:48;;;;;;;;;;;;;;;;;;5059663;28;5189;-60
2022/12/19 10:22:17;;;;;;;;;;;;;;;;;;5035890;28;4612;-62
2022/12/19 10:24:45;;;;;;;;;;;;;;;;;;5062552;28;4703;-61
2022/12/19 10:27:31;;;;;;;;;;;;;;;;;;5059165;28;1317;-61
2022/12/19 10:30:02;;;;;;;;;;;;;;;;;;5058301;28;4468;-63
2022/12/19 10:32:35;;;;;;;;;;;;;;;;;;5061373;28;4992;-63
2022/12/19 10:35:01;;;;;;;;;;;;;;;;;;5061677;28;4940;-62
2022/12/19 10:37:26;;;;;;;;;;;;;;;;;;5055035;28;4618;-62
2022/12/19 10:39:54;;;;;;;;;;;;;;;;;;5062381;28;4550;-62
2022/12/19 10:42:38;;;;;;;;;;;;;;;;;;5059610;28;5088;-62
2022/12/19 10:45:07;;;;;;;;;;;;;;;;;;5068748;28;1127;-61
2022/12/19 10:47:33;;;;;;;;;;;;;;;;;;5068678;28;4995;-61
2022/12/19 10:49:58;;;;;;;;;;;;;;;;;;5061338;28;4851;-60
2022/12/19 10:52:42;;;;;;;;;;;;;;;;;;5064139;28;5014;-62
2022/12/19 10:55:28;;;;;;;;;;;;;;;;;;5070821;28;5046;-61
2022/12/19 10:57:56;;;;;;;;;;;;;;;;;;5053708;28;5154;-61
2022/12/19 11:00:22;;;;;;;;;;;;;;;;;;5071279;28;5075;-61
2022/12/19 11:02:47;;;;;;;;;;;;;;;;;;5072793;28;4381;-61
2022/12/19 11:05:29;;;;;;;;;;;;;;;;;;5075007;28;5544;-62
2022/12/19 11:08:06;;;;;;;;;;;;;;;;;;5056643;28;5080;-62
2022/12/19 11:10:44;;;;;;;;;;;;;;;;;;5074850;28;5059;-62
2022/12/19 11:13:19;;;;;;;;;;;;;;;;;;5074971;28;4922;-61
2022/12/19 11:15:45;;;;;;;;;;;;;;;;;;5064288;28;5009;-61
2022/12/19 11:18:11;;;;;;;;;;;;;;;;;;5078408;28;1095;-62
2022/12/19 11:20:36;;;;;;;;;;;;;;;;;;5054767;28;4620;-62
2022/12/19 11:23:01;;;;;;;;;;;;;;;;;;5056130;28;4980;-62
2022/12/19 11:25:32;;;;;;;;;;;;;;;;;;5057643;28;5078;-62
2022/12/19 11:27:57;;;;;;;;;;;;;;;;;;5059704;28;4692;-62
2022/12/19 11:30:23;;;;;;;;;;;;;;;;;;5039265;28;4557;-62
2022/12/19 11:32:49;;;;;;;;;;;;;;;;;;5058833;28;1232;-61
2022/12/19 11:35:17;;;;;;;;;;;;;;;;;;5037364;28;4755;-62
2022/12/19 11:37:45;;;;;;;;;;;;;;;;;;5073556;28;4988;-63
2022/12/19 11:40:19;;;;;;;;;;;;;;;;;;5073932;28;5157;-62
2022/12/19 11:42:48;;;;;;;;;;;;;;;;;;5056314;28;4656;-64
2022/12/19 11:45:18;;;;;;;;;;;;;;;;;;5053856;28;4957;-63
2022/12/19 11:47:48;;;;;;;;;;;;;;;;;;5073634;28;3264;-62
2022/12/19 11:50:26;;;;;;;;;;;;;;;;;;5040272;28;4660;-63
2022/12/19 11:52:57;;;;;;;;;;;;;;;;;;5051657;28;5209;-63
2022/12/19 11:55:43;;;;;;;;;;;;;;;;;;5060367;28;5130;-61
2022/12/19 11:58:10;;;;;;;;;;;;;;;;;;5066483;28;4885;-61
2022/12/19 12:00:35;;;;;;;;;;;;;;;;;;5062450;28;5153;-61
2022/12/19 12:03:08;;;;;;;;;;;;;;;;;;5047322;28;4511;-63
2022/12/19 12:05:37;;;;;;;;;;;;;;;;;;5057355;28;5116;-62
2022/12/19 12:08:21;;;;;;;;;;;;;;;;;;5058146;28;5046;-61
2022/12/19 12:11:07;;;;;;;;;;;;;;;;;;5062345;28;4597;-62
2022/12/19 12:13:42;;;;;;;;;;;;;;;;;;5052627;28;5015;-63
2022/12/19 12:16:10;;;;;;;;;;;;;;;;;;5062931;28;4850;-63
2022/12/19 12:18:45;;;;;;;;;;;;;;;;;;5061295;28;4523;-62
2022/12/19 12:21:23;;;;;;;;;;;;;;;;;;5063782;28;3501;-63
2022/12/19 12:23:48;;;;;;;;;;;;;;;;;;5064954;28;5011;-62
2022/12/19 12:26:23;;;;;;;;;;;;;;;;;;5060091;28;4635;-63
2022/12/19 12:29:01;;;;;;;;;;;;;;;;;;5061915;28;4503;-62
2022/12/19 12:31:58;;;;;;;;;;;;;;;;;;5061993;28;4646;-62
2022/12/19 12:34:26;;;;;;;;;;;;;;;;;;5048147;28;4957;-60
2022/12/19 12:36:54;;;;;;;;;;;;;;;;;;5062314;28;5061;-60
2022/12/19 12:39:24;;;;;;;;;;;;;;;;;;5057704;28;4482;-60
2022/12/19 12:42:05;;;;;;;;;;;;;;;;;;5058679;28;3495;-60
2022/12/19 12:44:40;;;;;;;;;;;;;;;;;;5055741;28;4651;-62
2022/12/19 12:47:11;;;;;;;;;;;;;;;;;;5064558;28;4883;-61
2022/12/19 12:49:44;;;;;;;;;;;;;;;;;;5057208;28;5295;-61
2022/12/19 12:52:18;;;;;;;;;;;;;;;;;;5054882;28;5055;-61
2022/12/19 12:54:44;;;;;;;;;;;;;;;;;;5063665;28;5144;-62
2022/12/19 12:57:20;;;;;;;;;;;;;;;;;;5061462;28;2368;-62
2022/12/19 12:59:45;;;;;;;;;;;;;;;;;;5064822;28;4873;-63
2022/12/19 13:02:15;;;;;;;;;;;;;;;;;;5064704;28;5135;-63
2022/12/19 13:04:42;;;;;;;;;;;;;;;;;;5063397;28;5010;-62
2022/12/19 13:07:19;;;;;;;;;;;;;;;;;;5063434;28;4668;-61
2022/12/19 13:09:45;;;;;;;;;;;;;;;;;;5062621;28;5561;-61
2022/12/19 13:15:25;;;;;;;;;;;;;;;;;;5065009;28;5085;-62
2022/12/19 13:17:51;;;;;;;;;;;;;;;;;;5064555;28;1902;-61
2022/12/19 13:20:16;;;;;;;;;;;;;;;;;;5063417;28;4977;-60
2022/12/19 13:22:42;;;;;;;;;;;;;;;;;;5055454;28;4652;-62
2022/12/19 13:25:27;;;;;;;;;;;;;;;;;;5057704;28;4540;-65
2022/12/19 13:27:56;;;;;;;;;;;;;;;;;;5049000;28;5097;-63
2022/12/19 13:30:21;;;;;;;;;;;;;;;;;;5063178;28;4593;-63
2022/12/19 13:32:47;;;;;;;;;;;;;;;;;;5061863;28;1410;-63
2022/12/19 13:35:12;;;;;;;;;;;;;;;;;;5054769;28;5573;-63
2022/12/19 13:37:38;;;;;;;;;;;;;;;;;;5054458;28;4500;-63
2022/12/19 13:40:23;;;;;;;;;;;;;;;;;;5061026;28;4901;-63
2022/12/19 13:45:41;;;;;;;;;;;;;;;;;;5058634;28;4489;-65
2022/12/19 13:48:10;;;;;;;;;;;;;;;;;;5063053;28;1108;-64
2022/12/19 13:50:36;;;;;;;;;;;;;;;;;;5058378;28;4415;-65
2022/12/19 13:53:01;;;;;;;;;;;;;;;;;;5061851;28;4900;-64
2022/12/19 13:55:28;;;;;;;;;;;;;;;;;;5058889;28;5252;-63
2022/12/19 13:57:53;;;;;;;;;;;;;;;;;;5054635;28;4775;-65
2022/12/19 14:00:20;;;;;;;;;;;;;;;;;;5051324;28;5158;-65
2022/12/19 14:02:47;;;;;;;;;;;;;;;;;;5051502;28;4491;-64
2022/12/19 14:05:25;;;;;;;;;;;;;;;;;;5062641;28;5139;-66
2022/12/19 14:07:51;;;;;;;;;;;;;;;;;;5058589;28;4651;-64
2022/12/19 14:10:17;;;;;;;;;;;;;;;;;;5061339;28;4883;-63
2022/12/19 14:15:29;;;;;;;;;;;;;;;;;;5055908;28;5736;-64
2022/12/19 14:17:55;;;;;;;;;;;;;;;;;;5057868;28;3303;-62
2022/12/19 14:20:22;;;;;;;;;;;;;;;;;;5055508;28;5153;-62
2022/12/19 14:22:47;;;;;;;;;;;;;;;;;;5052328;28;5317;-63
2022/12/19 14:25:12;;;;;;;;;;;;;;;;;;5058829;28;4768;-63
2022/12/19 14:27:38;;;;;;;;;;;;;;;;;;5057439;28;4717;-62
2022/12/19 14:30:25;;;;;;;;;;;;;;;;;;5047310;28;3548;-63
2022/12/19 14:32:50;;;;;;;;;;;;;;;;;;5061902;28;4629;-62
2022/12/19 14:35:20;;;;;;;;;;;;;;;;;;5050325;28;5149;-64
2022/12/19 14:37:46;;;;;;;;;;;;;;;;;;5039890;28;4972;-64
2022/12/19 14:40:28;;;;;;;;;;;;;;;;;;5064988;28;5168;-64
2022/12/19 14:46:22;;;;;;;;;;;;;;;;;;5061968;28;5534;-63
2022/12/19 14:48:49;;;;;;;;;;;;;;;;;;5060521;28;4880;-61
2022/12/19 14:51:14;;;;;;;;;;;;;;;;;;5059652;28;5290;-63
2022/12/19 14:53:40;;;;;;;;;;;;;;;;;;5056547;28;3300;-63
2022/12/19 14:56:09;;;;;;;;;;;;;;;;;;5069901;28;5089;-63
2022/12/19 14:58:35;;;;;;;;;;;;;;;;;;5039074;28;4754;-63
2022/12/19 15:01:01;;;;;;;;;;;;;;;;;;5034850;28;5234;-62
2022/12/19 15:03:30;;;;;;;;;;;;;;;;;;5047497;28;4508;-62
2022/12/19 15:06:12;;;;;;;;;;;;;;;;;;5057857;28;1348;-62
2022/12/19 15:08:38;;;;;;;;;;;;;;;;;;5050957;28;5126;-63
2022/12/19 15:13:54;;;;;;;;;;;;;;;;;;5051047;28;4445;-64
2022/12/19 15:16:23;;;;;;;;;;;;;;;;;;5042048;28;5165;-62
2022/12/19 15:18:49;;;;;;;;;;;;;;;;;;5067468;28;4492;-62
2022/12/19 15:21:14;;;;;;;;;;;;;;;;;;5059496;28;4711;-63
2022/12/19 15:23:39;;;;;;;;;;;;;;;;;;5045888;28;3887;-63
2022/12/19 15:26:14;;;;;;;;;;;;;;;;;;5045728;28;4879;-61
2022/12/19 15:28:40;;;;;;;;;;;;;;;;;;5042588;28;4463;-66
2022/12/19 15:31:26;;;;;;;;;;;;;;;;;;5041614;28;4489;-64
2022/12/19 15:33:51;;;;;;;;;;;;;;;;;;5056680;28;4508;-65
2022/12/19 15:36:16;;;;;;;;;;;;;;;;;;5061682;28;4733;-64
2022/12/19 15:38:42;;;;;;;;;;;;;;;;;;5065763;28;3518;-63
2022/12/19 15:41:10;;;;;;;;;;;;;;;;;;5062839;28;4748;-63
2022/12/19 15:43:36;;;;;;;;;;;;;;;;;;5065721;28;4914;-63
2022/12/19 15:46:01;;;;;;;;;;;;;;;;;;5072289;28;4564;-63
2022/12/19 15:48:26;;;;;;;;;;;;;;;;;;5045230;28;5089;-66
2022/12/19 15:50:51;;;;;;;;;;;;;;;;;;5064667;28;3522;-63
2022/12/19 15:53:20;;;;;;;;;;;;;;;;;;5067478;28;5359;-64
2022/12/19 15:55:46;;;;;;;;;;;;;;;;;;5062398;28;4974;-64
2022/12/19 15:58:11;;;;;;;;;;;;;;;;;;5060280;28;5131;-64
2022/12/19 16:00:36;;;;;;;;;;;;;;;;;;5058474;28;4716;-64
2022/12/19 16:03:02;;;;;;;;;;;;;;;;;;5061304;28;4612;-64
2022/12/19 16:05:28;;;;;;;;;;;;;;;;;;5056708;28;5099;-63
2022/12/19 16:07:53;;;;;;;;;;;;;;;;;;5060374;28;4997;-63
2022/12/19 16:10:18;;;;;;;;;;;;;;;;;;5062675;28;5788;-63
2022/12/19 16:12:47;;;;;;;;;;;;;;;;;;5057453;28;4640;-63
2022/12/19 16:15:22;;;;;;;;;;;;;;;;;;5059179;28;5102;-64
2022/12/19 16:17:47;;;;;;;;;;;;;;;;;;5057000;28;3573;-63
2022/12/19 16:20:34;;;;;;;;;;;;;;;;;;5060019;28;5078;-63
2022/12/19 16:23:00;;;;;;;;;;;;;;;;;;5057499;28;4492;-66
2022/12/19 16:25:36;;;;;;;;;;;;;;;;;;5057390;28;4941;-61
2022/12/19 16:28:02;;;;;;;;;;;;;;;;;;5054421;28;4880;-62
2022/12/19 16:30:28;;;;;;;;;;;;;;;;;;5058334;28;4485;-61
2022/12/19 16:32:54;;;;;;;;;;;;;;;;;;5064739;28;3442;-65
2022/12/19 16:35:20;;;;;;;;;;;;;;;;;;5056983;28;5062;-64
2022/12/19 16:37:46;;;;;;;;;;;;;;;;;;5060246;28;5222;-65
2022/12/19 16:40:15;;;;;;;;;;;;;;;;;;5063343;28;4500;-64
2022/12/19 16:42:40;;;;;;;;;;;;;;;;;;5060254;28;4507;-64
2022/12/19 16:45:10;;;;;;;;;;;;;;;;;;5061524;28;3346;-64
2022/12/19 16:47:35;;;;;;;;;;;;;;;;;;5057058;28;5196;-72
2022/12/19 16:50:01;;;;;;;;;;;;;;;;;;5060502;28;5045;-65
2022/12/19 16:52:26;;;;;;;;;;;;;;;;;;5056983;28;4670;-64
2022/12/19 16:54:51;;;;;;;;;;;;;;;;;;5056764;28;4554;-65
2022/12/19 16:57:18;;;;;;;;;;;;;;;;;;5067251;28;4734;-65
2022/12/19 16:59:43;;;;;;;;;;;;;;;;;;5067771;28;3383;-64
2022/12/19 17:02:20;;;;;;;;;;;;;;;;;;5056215;28;5056;-65
2022/12/19 17:04:46;;;;;;;;;;;;;;;;;;5069128;28;5075;-64
2022/12/19 17:07:11;;;;;;;;;;;;;;;;;;5059215;28;4757;-65
2022/12/19 17:09:36;;;;;;;;;;;;;;;;;;5063684;28;5541;-64
2022/12/19 17:12:02;;;;;;;;;;;;;;;;;;5067345;28;3577;-62
2022/12/19 17:14:29;;;;;;;;;;;;;;;;;;5053366;28;4721;-62
2022/12/19 17:16:54;;;;;;;;;;;;;;;;;;5061328;28;5617;-63
2022/12/19 17:19:25;;;;;;;;;;;;;;;;;;5045372;28;4934;-68
2022/12/19 17:21:50;;;;;;;;;;;;;;;;;;5061926;28;5152;-64
2022/12/19 17:24:15;;;;;;;;;;;;;;;;;;5056186;28;4668;-61
2022/12/19 17:26:42;;;;;;;;;;;;;;;;;;5069177;28;3447;-63